sensor_id;sensor_type;location;lat;lon;timestamp;temperature;humidity
439;DHT22;206;48.782;9.252;2022-11-24T00:01:12;8.30;72.20
439;DHT22;206;48.782;9.252;2022-11-24T00:03:40;8.30;72.20
439;DHT22;206;48.782;9.252;2022-11-24T00:06:10;8.20;72.20
439;DHT22;206;48.782;9.252;2022-11-24T00:08:38;8.20;72.10
439;DHT22;206;48.782;9.252;2022-11-24T00:11:09;8.20;72.50
439;DHT22;206;48.782;9.252;2022-11-24T00:13:35;8.10;73.20
439;DHT22;206;48.782;9.252;2022-11-24T00:16:08;8.00;73.90
439;DHT22;206;48.782;9.252;2022-11-24T00:18:35;8.00;74.40
439;DHT22;206;48.782;9.252;2022-11-24T00:21:00;8.00;74.70
439;DHT22;206;48.782;9.252;2022-11-24T00:23:26;8.00;75.00
439;DHT22;206;48.782;9.252;2022-11-24T00:25:52;8.00;75.30
439;DHT22;206;48.782;9.252;2022-11-24T00:28:17;8.00;75.50
439;DHT22;206;48.782;9.252;2022-11-24T00:30:43;8.10;76.60
439;DHT22;206;48.782;9.252;2022-11-24T00:33:08;8.10;75.70
439;DHT22;206;48.782;9.252;2022-11-24T00:35:34;8.20;74.80
439;DHT22;206;48.782;9.252;2022-11-24T00:37:59;8.20;73.90
439;DHT22;206;48.782;9.252;2022-11-24T00:40:25;8.30;73.70
439;DHT22;206;48.782;9.252;2022-11-24T00:42:50;8.30;73.90
439;DHT22;206;48.782;9.252;2022-11-24T00:45:16;8.40;73.80
439;DHT22;206;48.782;9.252;2022-11-24T00:47:41;8.50;72.70
439;DHT22;206;48.782;9.252;2022-11-24T00:50:07;8.50;72.40
439;DHT22;206;48.782;9.252;2022-11-24T00:52:33;8.60;72.20
439;DHT22;206;48.782;9.252;2022-11-24T00:54:58;8.70;70.80
439;DHT22;206;48.782;9.252;2022-11-24T00:57:24;8.70;70.30
439;DHT22;206;48.782;9.252;2022-11-24T00:59:50;8.80;69.90
439;DHT22;206;48.782;9.252;2022-11-24T01:02:15;8.90;68.70
439;DHT22;206;48.782;9.252;2022-11-24T01:04:41;8.90;67.90
439;DHT22;206;48.782;9.252;2022-11-24T01:07:06;9.00;68.00
439;DHT22;206;48.782;9.252;2022-11-24T01:09:32;8.90;68.10
439;DHT22;206;48.782;9.252;2022-11-24T01:11:58;8.90;67.90
439;DHT22;206;48.782;9.252;2022-11-24T01:14:26;8.80;67.50
439;DHT22;206;48.782;9.252;2022-11-24T01:16:52;8.80;67.80
439;DHT22;206;48.782;9.252;2022-11-24T01:19:19;8.80;67.80
439;DHT22;206;48.782;9.252;2022-11-24T01:21:44;8.80;68.00
439;DHT22;206;48.782;9.252;2022-11-24T01:24:10;8.80;67.90
439;DHT22;206;48.782;9.252;2022-11-24T01:26:36;8.80;68.60
439;DHT22;206;48.782;9.252;2022-11-24T01:29:02;8.80;67.80
439;DHT22;206;48.782;9.252;2022-11-24T01:31:28;8.80;67.80
439;DHT22;206;48.782;9.252;2022-11-24T01:33:54;8.80;67.50
439;DHT22;206;48.782;9.252;2022-11-24T01:36:20;8.70;67.70
439;DHT22;206;48.782;9.252;2022-11-24T01:38:46;8.60;68.00
439;DHT22;206;48.782;9.252;2022-11-24T01:41:17;8.60;69.80
439;DHT22;206;48.782;9.252;2022-11-24T01:43:44;8.50;70.70
439;DHT22;206;48.782;9.252;2022-11-24T01:51:24;8.40;72.30
439;DHT22;206;48.782;9.252;2022-11-24T01:53:58;8.40;72.00
439;DHT22;206;48.782;9.252;2022-11-24T01:56:25;8.40;72.40
439;DHT22;206;48.782;9.252;2022-11-24T01:58:54;8.30;73.30
439;DHT22;206;48.782;9.252;2022-11-24T02:01:21;8.30;73.00
439;DHT22;206;48.782;9.252;2022-11-24T02:03:47;8.40;73.20
439;DHT22;206;48.782;9.252;2022-11-24T02:06:20;8.40;72.30
439;DHT22;206;48.782;9.252;2022-11-24T02:09:01;8.50;72.40
439;DHT22;206;48.782;9.252;2022-11-24T02:11:32;8.50;71.20
439;DHT22;206;48.782;9.252;2022-11-24T02:13:58;8.50;71.10
439;DHT22;206;48.782;9.252;2022-11-24T02:16:24;8.50;71.50
439;DHT22;206;48.782;9.252;2022-11-24T02:18:50;8.50;71.20
439;DHT22;206;48.782;9.252;2022-11-24T02:21:17;8.50;71.50
439;DHT22;206;48.782;9.252;2022-11-24T02:23:51;8.50;71.10
439;DHT22;206;48.782;9.252;2022-11-24T02:26:42;8.50;70.90
439;DHT22;206;48.782;9.252;2022-11-24T02:29:09;8.50;70.50
439;DHT22;206;48.782;9.252;2022-11-24T02:31:36;8.60;71.00
439;DHT22;206;48.782;9.252;2022-11-24T02:34:02;8.50;70.30
439;DHT22;206;48.782;9.252;2022-11-24T02:36:28;8.50;70.30
439;DHT22;206;48.782;9.252;2022-11-24T02:38:53;8.50;70.30
439;DHT22;206;48.782;9.252;2022-11-24T02:41:20;8.50;69.50
439;DHT22;206;48.782;9.252;2022-11-24T02:43:54;8.50;69.70
439;DHT22;206;48.782;9.252;2022-11-24T02:46:20;8.50;69.90
439;DHT22;206;48.782;9.252;2022-11-24T02:48:46;8.40;70.10
439;DHT22;206;48.782;9.252;2022-11-24T02:51:12;8.40;70.30
439;DHT22;206;48.782;9.252;2022-11-24T02:53:37;8.40;70.10
439;DHT22;206;48.782;9.252;2022-11-24T02:56:03;8.40;70.10
439;DHT22;206;48.782;9.252;2022-11-24T02:58:29;8.40;70.20
439;DHT22;206;48.782;9.252;2022-11-24T03:00:54;8.30;70.20
439;DHT22;206;48.782;9.252;2022-11-24T03:03:22;8.30;70.50
439;DHT22;206;48.782;9.252;2022-11-24T03:05:48;8.20;70.80
439;DHT22;206;48.782;9.252;2022-11-24T03:08:14;8.20;72.10
439;DHT22;206;48.782;9.252;2022-11-24T03:10:39;8.10;72.10
439;DHT22;206;48.782;9.252;2022-11-24T03:13:05;8.10;72.70
439;DHT22;206;48.782;9.252;2022-11-24T03:15:30;8.00;73.20
439;DHT22;206;48.782;9.252;2022-11-24T03:17:56;8.00;73.60
439;DHT22;206;48.782;9.252;2022-11-24T03:20:22;7.90;74.50
439;DHT22;206;48.782;9.252;2022-11-24T03:22:48;7.90;74.60
439;DHT22;206;48.782;9.252;2022-11-24T03:25:13;7.90;74.60
439;DHT22;206;48.782;9.252;2022-11-24T03:27:39;7.80;75.20
439;DHT22;206;48.782;9.252;2022-11-24T03:30:05;7.80;76.00
439;DHT22;206;48.782;9.252;2022-11-24T03:32:31;7.90;77.40
439;DHT22;206;48.782;9.252;2022-11-24T03:34:56;7.90;76.50
439;DHT22;206;48.782;9.252;2022-11-24T03:37:22;7.90;75.70
439;DHT22;206;48.782;9.252;2022-11-24T03:39:47;7.90;75.20
439;DHT22;206;48.782;9.252;2022-11-24T03:42:14;7.90;75.20
439;DHT22;206;48.782;9.252;2022-11-24T03:44:39;7.80;75.40
439;DHT22;206;48.782;9.252;2022-11-24T03:47:05;7.80;75.90
439;DHT22;206;48.782;9.252;2022-11-24T03:49:30;7.80;75.80
439;DHT22;206;48.782;9.252;2022-11-24T03:51:56;7.90;75.80
439;DHT22;206;48.782;9.252;2022-11-24T03:54:22;7.90;75.70
439;DHT22;206;48.782;9.252;2022-11-24T03:56:47;7.90;75.70
439;DHT22;206;48.782;9.252;2022-11-24T03:59:13;8.00;75.60
439;DHT22;206;48.782;9.252;2022-11-24T04:01:38;8.00;74.80
439;DHT22;206;48.782;9.252;2022-11-24T04:04:04;8.00;74.20
439;DHT22;206;48.782;9.252;2022-11-24T04:06:30;8.00;73.60
439;DHT22;206;48.782;9.252;2022-11-24T04:08:55;8.00;73.60
439;DHT22;206;48.782;9.252;2022-11-24T04:11:21;8.00;74.10
439;DHT22;206;48.782;9.252;2022-11-24T04:14:07;8.00;74.20
439;DHT22;206;48.782;9.252;2022-11-24T04:16:32;8.00;75.30
439;DHT22;206;48.782;9.252;2022-11-24T04:18:58;8.00;74.10
439;DHT22;206;48.782;9.252;2022-11-24T04:21:23;8.10;74.10
439;DHT22;206;48.782;9.252;2022-11-24T04:23:49;8.10;74.20
439;DHT22;206;48.782;9.252;2022-11-24T04:26:14;8.20;73.00
439;DHT22;206;48.782;9.252;2022-11-24T04:28:40;8.20;72.10
439;DHT22;206;48.782;9.252;2022-11-24T04:31:06;8.20;72.10
439;DHT22;206;48.782;9.252;2022-11-24T04:33:31;8.20;71.60
439;DHT22;206;48.782;9.252;2022-11-24T04:35:57;8.10;70.80
439;DHT22;206;48.782;9.252;2022-11-24T04:38:23;8.10;72.00
439;DHT22;206;48.782;9.252;2022-11-24T04:40:49;8.10;71.60
439;DHT22;206;48.782;9.252;2022-11-24T04:43:14;8.10;72.00
439;DHT22;206;48.782;9.252;2022-11-24T04:45:42;8.00;72.00
439;DHT22;206;48.782;9.252;2022-11-24T04:48:08;8.00;72.00
439;DHT22;206;48.782;9.252;2022-11-24T04:50:35;8.00;72.70
439;DHT22;206;48.782;9.252;2022-11-24T04:53:01;8.10;72.70
439;DHT22;206;48.782;9.252;2022-11-24T04:55:26;8.10;72.00
439;DHT22;206;48.782;9.252;2022-11-24T04:57:52;8.10;71.80
439;DHT22;206;48.782;9.252;2022-11-24T05:00:18;8.10;71.60
439;DHT22;206;48.782;9.252;2022-11-24T05:02:43;8.10;71.40
439;DHT22;206;48.782;9.252;2022-11-24T05:05:09;8.10;71.80
439;DHT22;206;48.782;9.252;2022-11-24T05:07:35;8.10;71.30
439;DHT22;206;48.782;9.252;2022-11-24T05:10:00;8.00;71.30
439;DHT22;206;48.782;9.252;2022-11-24T05:12:53;8.00;71.00
439;DHT22;206;48.782;9.252;2022-11-24T05:15:19;8.00;71.50
439;DHT22;206;48.782;9.252;2022-11-24T05:17:45;7.90;71.90
439;DHT22;206;48.782;9.252;2022-11-24T05:20:10;7.90;72.00
439;DHT22;206;48.782;9.252;2022-11-24T05:22:36;7.80;73.10
439;DHT22;206;48.782;9.252;2022-11-24T05:25:02;7.70;73.10
439;DHT22;206;48.782;9.252;2022-11-24T05:27:27;7.70;73.40
439;DHT22;206;48.782;9.252;2022-11-24T05:29:53;7.70;73.70
439;DHT22;206;48.782;9.252;2022-11-24T05:32:19;7.60;74.00
439;DHT22;206;48.782;9.252;2022-11-24T05:34:44;7.60;74.70
439;DHT22;206;48.782;9.252;2022-11-24T05:37:10;7.60;74.70
439;DHT22;206;48.782;9.252;2022-11-24T05:39:36;7.50;74.80
439;DHT22;206;48.782;9.252;2022-11-24T05:42:02;7.50;75.30
439;DHT22;206;48.782;9.252;2022-11-24T05:44:47;7.50;75.50
439;DHT22;206;48.782;9.252;2022-11-24T05:47:12;7.50;75.60
439;DHT22;206;48.782;9.252;2022-11-24T05:49:38;7.50;76.00
439;DHT22;206;48.782;9.252;2022-11-24T05:52:04;7.50;75.80
439;DHT22;206;48.782;9.252;2022-11-24T05:54:29;7.50;75.40
439;DHT22;206;48.782;9.252;2022-11-24T05:56:55;7.50;75.30
439;DHT22;206;48.782;9.252;2022-11-24T05:59:20;7.50;74.60
439;DHT22;206;48.782;9.252;2022-11-24T06:01:46;7.50;74.30
439;DHT22;206;48.782;9.252;2022-11-24T06:04:11;7.50;73.70
439;DHT22;206;48.782;9.252;2022-11-24T06:06:37;7.50;74.10
439;DHT22;206;48.782;9.252;2022-11-24T06:09:03;7.50;73.80
439;DHT22;206;48.782;9.252;2022-11-24T06:11:29;7.50;73.50
439;DHT22;206;48.782;9.252;2022-11-24T06:13:55;7.50;73.00
439;DHT22;206;48.782;9.252;2022-11-24T06:16:20;7.50;73.00
439;DHT22;206;48.782;9.252;2022-11-24T06:18:46;7.60;73.60
439;DHT22;206;48.782;9.252;2022-11-24T06:21:11;7.60;72.30
439;DHT22;206;48.782;9.252;2022-11-24T06:23:37;7.60;72.40
439;DHT22;206;48.782;9.252;2022-11-24T06:26:03;7.70;72.70
439;DHT22;206;48.782;9.252;2022-11-24T06:28:29;7.70;72.10
439;DHT22;206;48.782;9.252;2022-11-24T06:30:58;7.80;71.80
439;DHT22;206;48.782;9.252;2022-11-24T06:33:24;7.80;71.00
439;DHT22;206;48.782;9.252;2022-11-24T06:35:49;7.80;70.50
439;DHT22;206;48.782;9.252;2022-11-24T06:38:15;7.80;70.30
439;DHT22;206;48.782;9.252;2022-11-24T06:40:41;7.90;70.60
439;DHT22;206;48.782;9.252;2022-11-24T06:43:07;7.90;70.50
439;DHT22;206;48.782;9.252;2022-11-24T06:45:32;8.00;70.00
439;DHT22;206;48.782;9.252;2022-11-24T06:47:58;8.10;69.70
439;DHT22;206;48.782;9.252;2022-11-24T06:50:23;8.10;68.40
439;DHT22;206;48.782;9.252;2022-11-24T06:52:49;8.20;67.20
439;DHT22;206;48.782;9.252;2022-11-24T06:55:14;8.30;67.30
439;DHT22;206;48.782;9.252;2022-11-24T06:57:40;8.30;67.40
439;DHT22;206;48.782;9.252;2022-11-24T07:00:07;8.40;65.50
439;DHT22;206;48.782;9.252;2022-11-24T07:02:33;8.50;65.40
439;DHT22;206;48.782;9.252;2022-11-24T07:04:58;8.50;64.90
439;DHT22;206;48.782;9.252;2022-11-24T07:07:24;8.60;64.60
439;DHT22;206;48.782;9.252;2022-11-24T07:09:50;8.70;63.20
439;DHT22;206;48.782;9.252;2022-11-24T07:12:15;8.70;62.80
439;DHT22;206;48.782;9.252;2022-11-24T07:14:41;8.80;62.80
439;DHT22;206;48.782;9.252;2022-11-24T07:17:06;8.90;62.90
439;DHT22;206;48.782;9.252;2022-11-24T07:19:32;8.90;62.30
439;DHT22;206;48.782;9.252;2022-11-24T07:21:58;8.90;62.00
439;DHT22;206;48.782;9.252;2022-11-24T07:24:23;8.90;62.50
439;DHT22;206;48.782;9.252;2022-11-24T07:26:49;8.90;62.00
439;DHT22;206;48.782;9.252;2022-11-24T07:29:15;9.00;62.80
439;DHT22;206;48.782;9.252;2022-11-24T07:31:40;9.00;63.00
439;DHT22;206;48.782;9.252;2022-11-24T07:34:06;9.10;63.10
439;DHT22;206;48.782;9.252;2022-11-24T07:36:32;9.10;62.40
439;DHT22;206;48.782;9.252;2022-11-24T07:38:58;9.10;63.10
439;DHT22;206;48.782;9.252;2022-11-24T07:41:23;9.10;63.10
439;DHT22;206;48.782;9.252;2022-11-24T07:43:49;9.20;64.40
439;DHT22;206;48.782;9.252;2022-11-24T07:46:17;9.20;65.30
439;DHT22;206;48.782;9.252;2022-11-24T07:48:43;9.10;66.80
439;DHT22;206;48.782;9.252;2022-11-24T07:51:09;9.10;67.00
439;DHT22;206;48.782;9.252;2022-11-24T07:53:35;9.30;67.30
439;DHT22;206;48.782;9.252;2022-11-24T07:56:02;9.30;66.80
439;DHT22;206;48.782;9.252;2022-11-24T07:58:29;9.30;66.50
439;DHT22;206;48.782;9.252;2022-11-24T08:00:55;9.30;67.20
439;DHT22;206;48.782;9.252;2022-11-24T08:03:22;9.40;67.50
439;DHT22;206;48.782;9.252;2022-11-24T08:05:58;9.50;68.40
439;DHT22;206;48.782;9.252;2022-11-24T08:08:25;9.50;68.40
439;DHT22;206;48.782;9.252;2022-11-24T08:10:50;9.50;68.50
439;DHT22;206;48.782;9.252;2022-11-24T08:13:17;9.60;68.50
439;DHT22;206;48.782;9.252;2022-11-24T08:15:43;9.60;68.50
439;DHT22;206;48.782;9.252;2022-11-24T08:18:08;9.60;66.20
439;DHT22;206;48.782;9.252;2022-11-24T08:20:34;9.60;68.00
439;DHT22;206;48.782;9.252;2022-11-24T08:23:00;9.70;68.60
439;DHT22;206;48.782;9.252;2022-11-24T08:25:26;9.70;68.30
439;DHT22;206;48.782;9.252;2022-11-24T08:27:57;9.80;66.20
439;DHT22;206;48.782;9.252;2022-11-24T08:30:23;9.80;66.90
439;DHT22;206;48.782;9.252;2022-11-24T08:32:49;9.80;66.70
439;DHT22;206;48.782;9.252;2022-11-24T08:35:14;9.90;66.30
439;DHT22;206;48.782;9.252;2022-11-24T08:37:40;9.90;66.70
439;DHT22;206;48.782;9.252;2022-11-24T08:40:06;9.90;66.70
439;DHT22;206;48.782;9.252;2022-11-24T08:42:31;10.00;64.80
439;DHT22;206;48.782;9.252;2022-11-24T08:44:57;10.00;64.30
439;DHT22;206;48.782;9.252;2022-11-24T08:47:23;10.10;63.90
439;DHT22;206;48.782;9.252;2022-11-24T08:49:48;10.10;63.20
439;DHT22;206;48.782;9.252;2022-11-24T08:52:15;10.10;62.90
439;DHT22;206;48.782;9.252;2022-11-24T08:54:40;10.10;63.50
439;DHT22;206;48.782;9.252;2022-11-24T08:57:12;10.20;63.60
439;DHT22;206;48.782;9.252;2022-11-24T08:59:37;10.10;61.00
439;DHT22;206;48.782;9.252;2022-11-24T09:02:03;10.10;59.60
439;DHT22;206;48.782;9.252;2022-11-24T09:04:29;10.20;60.80
439;DHT22;206;48.782;9.252;2022-11-24T09:06:54;10.10;62.00
439;DHT22;206;48.782;9.252;2022-11-24T09:09:20;10.10;62.70
439;DHT22;206;48.782;9.252;2022-11-24T09:11:45;10.10;62.30
439;DHT22;206;48.782;9.252;2022-11-24T09:14:11;10.10;62.10
439;DHT22;206;48.782;9.252;2022-11-24T09:16:37;10.20;61.70
439;DHT22;206;48.782;9.252;2022-11-24T09:19:04;10.20;59.50
439;DHT22;206;48.782;9.252;2022-11-24T09:21:31;10.20;59.20
439;DHT22;206;48.782;9.252;2022-11-24T09:23:58;10.30;59.80
439;DHT22;206;48.782;9.252;2022-11-24T09:26:27;10.40;59.70
439;DHT22;206;48.782;9.252;2022-11-24T09:28:54;10.50;59.30
439;DHT22;206;48.782;9.252;2022-11-24T09:31:25;10.50;58.40
439;DHT22;206;48.782;9.252;2022-11-24T09:33:51;10.60;57.60
439;DHT22;206;48.782;9.252;2022-11-24T09:36:18;10.70;56.00
439;DHT22;206;48.782;9.252;2022-11-24T09:38:43;10.70;55.00
439;DHT22;206;48.782;9.252;2022-11-24T09:44:53;10.80;53.20
439;DHT22;206;48.782;9.252;2022-11-24T09:50:17;10.80;51.30
439;DHT22;206;48.782;9.252;2022-11-24T09:53:07;10.80;52.20
439;DHT22;206;48.782;9.252;2022-11-24T09:55:50;10.80;51.30
439;DHT22;206;48.782;9.252;2022-11-24T10:01:17;10.80;52.20
439;DHT22;206;48.782;9.252;2022-11-24T10:03:48;10.80;51.40
439;DHT22;206;48.782;9.252;2022-11-24T10:06:27;10.90;51.50
439;DHT22;206;48.782;9.252;2022-11-24T10:11:53;11.00;49.40
439;DHT22;206;48.782;9.252;2022-11-24T10:19:56;11.10;49.50
439;DHT22;206;48.782;9.252;2022-11-24T10:25:42;11.30;48.70
439;DHT22;206;48.782;9.252;2022-11-24T10:28:13;11.60;47.90
439;DHT22;206;48.782;9.252;2022-11-24T10:30:40;11.90;47.30
439;DHT22;206;48.782;9.252;2022-11-24T10:33:15;12.00;45.90
439;DHT22;206;48.782;9.252;2022-11-24T10:36:01;12.10;44.80
439;DHT22;206;48.782;9.252;2022-11-24T10:38:47;12.10;44.50
439;DHT22;206;48.782;9.252;2022-11-24T10:41:45;12.00;43.70
439;DHT22;206;48.782;9.252;2022-11-24T10:44:13;12.00;45.50
439;DHT22;206;48.782;9.252;2022-11-24T10:46:39;11.90;45.50
439;DHT22;206;48.782;9.252;2022-11-24T10:49:05;12.00;45.10
439;DHT22;206;48.782;9.252;2022-11-24T10:51:50;12.00;45.50
439;DHT22;206;48.782;9.252;2022-11-24T10:54:22;12.00;45.50
439;DHT22;206;48.782;9.252;2022-11-24T10:56:50;12.10;44.00
439;DHT22;206;48.782;9.252;2022-11-24T11:01:52;12.60;43.80
439;DHT22;206;48.782;9.252;2022-11-24T11:04:26;12.60;42.50
439;DHT22;206;48.782;9.252;2022-11-24T11:07:05;12.80;41.90
439;DHT22;206;48.782;9.252;2022-11-24T11:09:30;12.90;41.00
439;DHT22;206;48.782;9.252;2022-11-24T11:12:08;12.90;39.80
439;DHT22;206;48.782;9.252;2022-11-24T11:14:35;12.70;40.80
439;DHT22;206;48.782;9.252;2022-11-24T11:17:01;12.60;42.10
439;DHT22;206;48.782;9.252;2022-11-24T11:22:25;12.60;43.30
439;DHT22;206;48.782;9.252;2022-11-24T11:27:32;12.50;43.60
439;DHT22;206;48.782;9.252;2022-11-24T11:30:17;12.60;42.20
439;DHT22;206;48.782;9.252;2022-11-24T11:32:59;12.90;43.00
439;DHT22;206;48.782;9.252;2022-11-24T11:35:30;13.30;41.30
439;DHT22;206;48.782;9.252;2022-11-24T11:38:00;13.20;38.40
439;DHT22;206;48.782;9.252;2022-11-24T11:40:30;13.10;38.30
439;DHT22;206;48.782;9.252;2022-11-24T11:43:12;13.00;39.10
439;DHT22;206;48.782;9.252;2022-11-24T11:45:45;13.10;39.30
439;DHT22;206;48.782;9.252;2022-11-24T11:48:28;13.20;38.70
439;DHT22;206;48.782;9.252;2022-11-24T11:54:07;13.50;38.10
439;DHT22;206;48.782;9.252;2022-11-24T11:56:38;13.60;38.10
439;DHT22;206;48.782;9.252;2022-11-24T12:02:17;13.70;37.10
439;DHT22;206;48.782;9.252;2022-11-24T12:04:52;13.50;36.90
439;DHT22;206;48.782;9.252;2022-11-24T12:12:36;13.10;37.70
439;DHT22;206;48.782;9.252;2022-11-24T12:34:50;13.80;34.90
439;DHT22;206;48.782;9.252;2022-11-24T12:37:24;13.80;33.50
439;DHT22;206;48.782;9.252;2022-11-24T12:42:49;13.80;33.30
439;DHT22;206;48.782;9.252;2022-11-24T12:45:27;13.70;32.00
439;DHT22;206;48.782;9.252;2022-11-24T12:48:12;13.50;31.80
439;DHT22;206;48.782;9.252;2022-11-24T12:50:43;13.30;32.80
439;DHT22;206;48.782;9.252;2022-11-24T12:53:28;13.20;32.30
439;DHT22;206;48.782;9.252;2022-11-24T12:55:59;13.10;32.90
439;DHT22;206;48.782;9.252;2022-11-24T13:06:50;13.30;32.90
439;DHT22;206;48.782;9.252;2022-11-24T13:09:17;13.40;32.50
439;DHT22;206;48.782;9.252;2022-11-24T13:11:51;13.40;32.00
439;DHT22;206;48.782;9.252;2022-11-24T13:14:20;13.50;30.80
439;DHT22;206;48.782;9.252;2022-11-24T13:16:57;13.70;29.80
439;DHT22;206;48.782;9.252;2022-11-24T13:19:31;13.70;28.80
439;DHT22;206;48.782;9.252;2022-11-24T13:24:37;13.70;27.70
439;DHT22;206;48.782;9.252;2022-11-24T13:37:46;13.60;27.60
439;DHT22;206;48.782;9.252;2022-11-24T13:53:42;13.20;27.90
439;DHT22;206;48.782;9.252;2022-11-24T14:01:11;13.30;28.20
439;DHT22;206;48.782;9.252;2022-11-24T14:03:42;13.30;28.00
439;DHT22;206;48.782;9.252;2022-11-24T14:06:16;13.30;27.40
439;DHT22;206;48.782;9.252;2022-11-24T14:08:44;13.20;27.40
439;DHT22;206;48.782;9.252;2022-11-24T14:11:14;13.00;27.20
439;DHT22;206;48.782;9.252;2022-11-24T14:13:40;12.90;27.20
439;DHT22;206;48.782;9.252;2022-11-24T14:18:39;12.90;28.20
439;DHT22;206;48.782;9.252;2022-11-24T14:21:37;12.80;28.70
439;DHT22;206;48.782;9.252;2022-11-24T14:24:28;12.70;28.70
439;DHT22;206;48.782;9.252;2022-11-24T14:26:54;12.60;28.80
439;DHT22;206;48.782;9.252;2022-11-24T14:29:22;12.60;29.20
439;DHT22;206;48.782;9.252;2022-11-24T14:31:56;12.60;29.40
439;DHT22;206;48.782;9.252;2022-11-24T14:34:23;12.60;29.60
439;DHT22;206;48.782;9.252;2022-11-24T14:36:51;12.50;29.70
439;DHT22;206;48.782;9.252;2022-11-24T14:39:20;12.50;30.20
439;DHT22;206;48.782;9.252;2022-11-24T14:42:00;12.40;29.50
439;DHT22;206;48.782;9.252;2022-11-24T14:47:06;12.40;29.90
439;DHT22;206;48.782;9.252;2022-11-24T14:49:39;12.40;30.40
439;DHT22;206;48.782;9.252;2022-11-24T14:52:11;12.40;30.20
439;DHT22;206;48.782;9.252;2022-11-24T14:54:49;12.40;30.30
439;DHT22;206;48.782;9.252;2022-11-24T14:57:34;12.50;30.00
439;DHT22;206;48.782;9.252;2022-11-24T15:02:41;12.60;30.30
439;DHT22;206;48.782;9.252;2022-11-24T15:05:09;12.60;30.00
439;DHT22;206;48.782;9.252;2022-11-24T15:07:36;12.60;30.00
439;DHT22;206;48.782;9.252;2022-11-24T15:10:15;12.60;29.90
439;DHT22;206;48.782;9.252;2022-11-24T15:12:52;12.60;30.20
439;DHT22;206;48.782;9.252;2022-11-24T15:15:21;12.70;30.40
439;DHT22;206;48.782;9.252;2022-11-24T15:17:55;12.60;31.00
439;DHT22;206;48.782;9.252;2022-11-24T15:20:28;12.70;30.40
439;DHT22;206;48.782;9.252;2022-11-24T15:25:41;12.70;30.70
439;DHT22;206;48.782;9.252;2022-11-24T15:28:07;12.70;31.20
439;DHT22;206;48.782;9.252;2022-11-24T15:30:34;12.60;31.10
439;DHT22;206;48.782;9.252;2022-11-24T15:33:01;12.60;31.50
439;DHT22;206;48.782;9.252;2022-11-24T15:35:30;12.50;32.20
439;DHT22;206;48.782;9.252;2022-11-24T15:37:57;12.50;32.00
439;DHT22;206;48.782;9.252;2022-11-24T15:40:22;12.50;32.40
439;DHT22;206;48.782;9.252;2022-11-24T15:42:53;12.40;32.60
439;DHT22;206;48.782;9.252;2022-11-24T15:45:20;12.40;31.70
439;DHT22;206;48.782;9.252;2022-11-24T15:47:46;12.30;31.40
439;DHT22;206;48.782;9.252;2022-11-24T15:50:12;12.20;31.30
439;DHT22;206;48.782;9.252;2022-11-24T15:52:38;12.20;31.50
439;DHT22;206;48.782;9.252;2022-11-24T15:55:05;12.10;32.40
439;DHT22;206;48.782;9.252;2022-11-24T15:57:32;12.00;32.90
439;DHT22;206;48.782;9.252;2022-11-24T15:59:58;11.90;33.00
439;DHT22;206;48.782;9.252;2022-11-24T16:02:24;11.80;33.70
439;DHT22;206;48.782;9.252;2022-11-24T16:04:50;11.60;33.30
439;DHT22;206;48.782;9.252;2022-11-24T16:07:15;11.60;33.70
439;DHT22;206;48.782;9.252;2022-11-24T16:09:41;11.50;34.30
439;DHT22;206;48.782;9.252;2022-11-24T16:12:07;11.40;34.40
439;DHT22;206;48.782;9.252;2022-11-24T16:14:36;11.40;34.30
439;DHT22;206;48.782;9.252;2022-11-24T16:17:02;11.30;34.00
439;DHT22;206;48.782;9.252;2022-11-24T16:19:28;11.30;34.70
439;DHT22;206;48.782;9.252;2022-11-24T16:21:53;11.20;34.90
439;DHT22;206;48.782;9.252;2022-11-24T16:24:19;11.10;35.70
439;DHT22;206;48.782;9.252;2022-11-24T16:26:44;11.00;35.80
439;DHT22;206;48.782;9.252;2022-11-24T16:29:10;10.90;36.50
439;DHT22;206;48.782;9.252;2022-11-24T16:31:36;10.80;37.00
439;DHT22;206;48.782;9.252;2022-11-24T16:34:02;10.70;37.50
439;DHT22;206;48.782;9.252;2022-11-24T16:36:27;10.70;38.80
439;DHT22;206;48.782;9.252;2022-11-24T16:38:53;10.60;39.40
439;DHT22;206;48.782;9.252;2022-11-24T16:41:19;10.50;39.90
439;DHT22;206;48.782;9.252;2022-11-24T16:43:46;10.40;40.70
439;DHT22;206;48.782;9.252;2022-11-24T16:46:18;10.30;41.30
439;DHT22;206;48.782;9.252;2022-11-24T16:48:46;10.20;42.00
439;DHT22;206;48.782;9.252;2022-11-24T16:51:13;10.10;42.30
439;DHT22;206;48.782;9.252;2022-11-24T16:53:39;10.00;42.30
439;DHT22;206;48.782;9.252;2022-11-24T16:56:05;10.00;42.40
439;DHT22;206;48.782;9.252;2022-11-24T16:58:32;9.90;44.60
439;DHT22;206;48.782;9.252;2022-11-24T17:01:09;9.80;44.50
439;DHT22;206;48.782;9.252;2022-11-24T17:03:35;9.80;44.60
439;DHT22;206;48.782;9.252;2022-11-24T17:06:02;9.70;46.30
439;DHT22;206;48.782;9.252;2022-11-24T17:08:36;9.60;47.70
439;DHT22;206;48.782;9.252;2022-11-24T17:11:16;9.50;48.60
439;DHT22;206;48.782;9.252;2022-11-24T17:13:43;9.40;49.00
439;DHT22;206;48.782;9.252;2022-11-24T17:16:11;9.40;50.20
439;DHT22;206;48.782;9.252;2022-11-24T17:18:37;9.20;50.90
439;DHT22;206;48.782;9.252;2022-11-24T17:21:04;9.20;51.50
439;DHT22;206;48.782;9.252;2022-11-24T17:23:30;9.10;52.20
439;DHT22;206;48.782;9.252;2022-11-24T17:26:03;9.00;52.80
439;DHT22;206;48.782;9.252;2022-11-24T17:28:29;9.00;53.50
439;DHT22;206;48.782;9.252;2022-11-24T17:30:55;8.90;53.90
439;DHT22;206;48.782;9.252;2022-11-24T17:33:20;8.80;53.60
439;DHT22;206;48.782;9.252;2022-11-24T17:35:46;8.80;54.20
439;DHT22;206;48.782;9.252;2022-11-24T17:38:11;8.70;54.70
439;DHT22;206;48.782;9.252;2022-11-24T17:40:37;8.60;55.60
439;DHT22;206;48.782;9.252;2022-11-24T17:43:02;8.60;55.10
439;DHT22;206;48.782;9.252;2022-11-24T17:45:29;8.50;55.20
439;DHT22;206;48.782;9.252;2022-11-24T17:47:56;8.40;55.60
439;DHT22;206;48.782;9.252;2022-11-24T17:50:22;8.50;55.70
439;DHT22;206;48.782;9.252;2022-11-24T17:52:48;8.40;55.80
439;DHT22;206;48.782;9.252;2022-11-24T17:55:14;8.40;55.80
439;DHT22;206;48.782;9.252;2022-11-24T17:57:39;8.40;55.50
439;DHT22;206;48.782;9.252;2022-11-24T18:00:06;8.40;56.10
439;DHT22;206;48.782;9.252;2022-11-24T18:02:31;8.40;56.10
439;DHT22;206;48.782;9.252;2022-11-24T18:04:57;8.30;56.50
439;DHT22;206;48.782;9.252;2022-11-24T18:07:23;8.30;56.90
439;DHT22;206;48.782;9.252;2022-11-24T18:09:48;8.30;57.00
439;DHT22;206;48.782;9.252;2022-11-24T18:12:14;8.20;57.00
439;DHT22;206;48.782;9.252;2022-11-24T18:14:39;8.20;57.20
439;DHT22;206;48.782;9.252;2022-11-24T18:17:05;8.20;57.50
439;DHT22;206;48.782;9.252;2022-11-24T18:19:31;8.10;57.40
439;DHT22;206;48.782;9.252;2022-11-24T18:21:56;8.10;57.40
439;DHT22;206;48.782;9.252;2022-11-24T18:24:22;8.00;58.20
439;DHT22;206;48.782;9.252;2022-11-24T18:26:47;8.00;58.70
439;DHT22;206;48.782;9.252;2022-11-24T18:29:14;7.90;59.10
439;DHT22;206;48.782;9.252;2022-11-24T18:31:40;7.90;59.50
439;DHT22;206;48.782;9.252;2022-11-24T18:34:06;7.90;59.80
439;DHT22;206;48.782;9.252;2022-11-24T18:36:32;7.80;60.50
439;DHT22;206;48.782;9.252;2022-11-24T18:39:05;7.90;60.60
439;DHT22;206;48.782;9.252;2022-11-24T18:41:31;7.80;61.10
439;DHT22;206;48.782;9.252;2022-11-24T18:43:58;7.80;61.60
439;DHT22;206;48.782;9.252;2022-11-24T18:46:26;7.80;61.60
439;DHT22;206;48.782;9.252;2022-11-24T18:48:52;7.90;61.30